Alorton, Illinois
Current Conditions -  °F | °C
As of 12:53 PM on Friday 28 Nov 2014 (Local Time) from KCPS Reporting Station
Clear Clear  
Wind Chill:   Ceiling: Unl
Heat Index:   Visibility: 10mi
Dew Point:   Wind: 13mph
Humidity: 59%   Direction: 170°S
Pressure: 30.04"   Gusts: NA
Location:  38.5841°N, 90.126°W
Report Text: KCPS 281853Z 17011KT 10SM CLR 08/01 A3004 RMK AO2 SLP174 T00830006
Loading
Personal Weather Stations






























Interactive Weather Map New forecast layout! Learn more

10-Day Weather Forecast

Advertisements
Track Severe Weather on mobile